Mercer County Airport
KBLF : now visible

Airfield :











YOU CAN JOIN US ON...

 
LOGIN :

Register | Disclaimer

   EN    FR    IT 

 









Legend :    VFR   Marginal VFR   IFR   Intensive IFR   Very Intensive IFR
Visi :
Ceiling :
>= 8 km
>= 3000ft
5 to 8 km
1000 to 3000 ft
1500m to 5 km
500 to 1000 ft
800 to 1500m
200 to 500 ft
< 800m
< 200 ft
Symbols :   Thunderstorms  Fog  Heavy snow  Heavy precipitations  Wind > 20 kt






- Airport Elevation : 2857 ft
- IATA code : BLF


KBLF - Mercer County

CURRENT METAR :
  • 231752Z AUTO 10SM FEW042 19/09 A3027 RMK AO2 SLP230 T01890094 10194 20117 58001

EXPIRED METARs :
  • 231652Z AUTO 00000KT 10SM FEW033 18/09 A3027 RMK AO2 SLP230 T01830094
  • 231552Z AUTO 06006KT 10SM OVC031 17/10 A3027 RMK AO2 SLP231 T01720100

TAF KBLF
Valid from the 23 at 18:00 until the 24 at 18:00 UTC


231731Z 2318/2418 13005KT P6SM SCT035
FM240400 14006KT P6SM SCT250
KZID FIR / North America



MET'MAP, your aeronautical weather chart ! - Copyright ORBIFLY December 2007 - Disclaimer

ORBIFLY MET'MAP TEAM :

Programming & Development : Alexandra Zaïnal
Concept & original design : Baudouin d'Aumeries
Assistance for programming : Marc-Olivier Méhu
Technical & hardware support : Manuel Goepfert

Contact : metmap@orbifly.com




SOURCES & CREDITS :

   NOAA       Earth
Advisory